MUMZ/MZO METAR and TAF weather

Enter ICAO airport designator
Station Type Date Time Source
MUMZ METAR 2019/07/03 12:50 UTC NOAA

MUMZ 031250Z 08003KT 040V110 8000 FEW020 26/25 Q1016


Station Type Date Time Source
MUMZ Decoded METAR 2019/07/03 12:50 UTC NOAA

Manzanillo, Oriente, Cuba (MUMZ) 20-20N 077-07W 60M
Jul 03, 2019 - 08:50 AM EDT / 2019.07.03 1250 UTC
Wind: from the E (080 degrees) at 3 MPH (3 KT) (direction variable):0
Visibility: 4 mile(s):0
Sky conditions: mostly clear
Temperature: 78 F (26 C)
Dew Point: 77 F (25 C)
Relative Humidity: 94%
Pressure (altimeter): 30.00 in. Hg (1016 hPa)
ob: MUMZ 031250Z 08003KT 040V110 8000 FEW020 26/25 Q1016
cycle: 13

Station Type Date Time Source
MUMZ TAF 2019/07/17 18:18 UTC NOAA

MUMZ 171700Z 1718/1806 07008KT 9000 SCT020
TEMPO 1718/1724 5000 TSRA SCT018CB BKN020
BECMG 1801/1803 VRB03KT

Example: see airport list